createdAt,value
2022-08-28T00:03:48.397Z,16.9
2022-08-28T00:08:48.432Z,12.9
2022-08-28T00:13:48.353Z,14.4
2022-08-28T00:18:48.361Z,19.1
2022-08-28T00:23:48.454Z,15.5
2022-08-28T00:28:48.305Z,17.7
2022-08-28T00:33:48.352Z,15.5
2022-08-28T00:38:48.433Z,12.8
2022-08-28T00:43:48.249Z,17.0
2022-08-28T00:48:48.220Z,15.3
2022-08-28T00:53:48.341Z,18.0
2022-08-28T00:58:48.272Z,13.9
2022-08-28T01:03:48.203Z,15.7
2022-08-28T01:08:50.361Z,15.3
2022-08-28T01:13:48.224Z,18.2
2022-08-28T01:18:48.219Z,17.7
2022-08-28T01:23:48.437Z,19.3
2022-08-28T01:28:48.884Z,17.6
2022-08-28T01:33:48.295Z,19.8
2022-08-28T01:38:48.210Z,16.3
2022-08-28T01:43:48.267Z,18.0
2022-08-28T01:48:49.608Z,18.9
2022-08-28T01:53:48.371Z,21.1
2022-08-28T01:58:48.247Z,17.1
2022-08-28T02:03:48.305Z,22.8
2022-08-28T02:08:48.418Z,21.0
2022-08-28T02:13:50.834Z,22.5
2022-08-28T02:18:48.065Z,17.1
2022-08-28T02:23:48.166Z,16.9
2022-08-28T02:28:48.150Z,19.7
2022-08-28T02:33:48.458Z,21.5
2022-08-28T02:38:48.015Z,24.0
2022-08-28T02:43:48.203Z,27.4
2022-08-28T02:48:48.124Z,26.7
2022-08-28T02:53:48.263Z,24.4
2022-08-28T02:58:47.978Z,24.1
2022-08-28T03:03:48.129Z,25.8
2022-08-28T03:08:48.175Z,21.8
2022-08-28T03:13:48.054Z,28.6
2022-08-28T03:18:48.072Z,27.1
2022-08-28T03:23:48.258Z,19.0
2022-08-28T03:28:48.075Z,20.7
2022-08-28T03:33:47.954Z,22.8
2022-08-28T03:38:47.923Z,22.1
2022-08-28T03:43:48.050Z,23.2
2022-08-28T03:48:48.163Z,26.0
2022-08-28T03:53:48.127Z,27.5
2022-08-28T03:58:47.951Z,27.1
2022-08-28T04:03:48.102Z,20.6
2022-08-28T04:08:48.166Z,19.5
2022-08-28T04:13:48.033Z,24.5
2022-08-28T04:18:47.914Z,19.5
2022-08-28T04:23:48.392Z,26.8
2022-08-28T04:28:49.104Z,19.8
2022-08-28T04:33:48.017Z,27.2
2022-08-28T04:38:48.228Z,21.3
2022-08-28T04:43:47.966Z,22.4
2022-08-28T04:48:47.918Z,20.9
2022-08-28T04:53:48.099Z,22.2
2022-08-28T04:58:47.927Z,23.6
2022-08-28T05:03:47.930Z,25.4
2022-08-28T05:08:48.121Z,28.5
2022-08-28T05:13:47.765Z,22.1
2022-08-28T05:18:47.856Z,17.2
2022-08-28T05:23:48.043Z,17.2
2022-08-28T05:28:47.869Z,19.9
2022-08-28T05:33:47.807Z,20.6
2022-08-28T05:38:48.170Z,17.7
2022-08-28T05:43:47.908Z,16.3
2022-08-28T05:48:47.717Z,17.8
2022-08-28T05:53:47.990Z,18.4
2022-08-28T05:58:47.756Z,17.9
2022-08-28T06:03:47.834Z,17.1
2022-08-28T06:08:58.150Z,19.2
2022-08-28T06:13:47.709Z,19.9
2022-08-28T06:18:47.721Z,17.4
2022-08-28T06:23:47.895Z,16.8
2022-08-28T06:28:47.702Z,17.4
2022-08-28T06:33:47.753Z,20.1
2022-08-28T06:38:47.920Z,20.9
2022-08-28T06:43:47.675Z,21.1
2022-08-28T06:48:47.758Z,18.6
2022-08-28T06:53:47.937Z,21.6
2022-08-28T06:58:50.117Z,18.0
2022-08-28T07:03:47.661Z,23.6
2022-08-28T07:08:47.849Z,19.6
2022-08-28T07:13:47.782Z,20.4
2022-08-28T07:18:47.712Z,21.8
2022-08-28T07:23:47.612Z,18.3
2022-08-28T07:28:47.723Z,18.1
2022-08-28T07:33:50.827Z,21.6
2022-08-28T07:38:47.624Z,19.2
2022-08-28T07:43:47.704Z,20.9
2022-08-28T07:48:48.259Z,20.8
2022-08-28T07:53:47.591Z,18.6
2022-08-28T07:58:47.507Z,16.0
2022-08-28T08:03:47.655Z,15.0
2022-08-28T08:08:47.698Z,21.3
2022-08-28T08:13:47.541Z,12.9
2022-08-28T08:18:47.593Z,14.3
2022-08-28T08:23:47.810Z,15.5
2022-08-28T08:28:47.634Z,12.8
2022-08-28T08:33:47.620Z,18.4
2022-08-28T08:38:47.483Z,15.8
2022-08-28T08:43:47.622Z,18.9
2022-08-28T08:48:47.570Z,17.3
2022-08-28T08:53:47.490Z,19.0
2022-08-28T08:58:47.698Z,18.0
2022-08-28T09:03:47.618Z,16.8
2022-08-28T09:08:47.538Z,15.5
2022-08-28T09:13:47.528Z,12.6
2022-08-28T09:18:47.578Z,12.4
2022-08-28T09:23:47.683Z,18.0
2022-08-28T09:28:47.574Z,13.4
2022-08-28T09:33:47.620Z,18.9
2022-08-28T09:38:47.656Z,15.7
2022-08-28T09:43:47.607Z,14.7
2022-08-28T09:48:47.509Z,14.7
2022-08-28T09:53:47.410Z,18.5
2022-08-28T09:58:47.635Z,19.0
2022-08-28T10:03:47.618Z,15.8
2022-08-28T10:08:47.345Z,14.7
2022-08-28T10:13:47.470Z,13.6
2022-08-28T10:18:47.440Z,16.0
2022-08-28T10:23:47.477Z,10.4
2022-08-28T10:28:47.328Z,13.1
2022-08-28T10:33:47.430Z,12.2
2022-08-28T10:38:52.938Z,9.6
2022-08-28T10:43:48.060Z,11.7
2022-08-28T10:48:47.371Z,10.3
2022-08-28T10:53:47.455Z,11.5
2022-08-28T10:58:47.884Z,11.7
2022-08-28T11:03:47.584Z,13.0
2022-08-28T11:08:47.324Z,11.1
2022-08-28T11:13:47.967Z,11.2
2022-08-28T11:18:47.429Z,10.3
2022-08-28T11:23:47.514Z,11.9
2022-08-28T11:28:47.612Z,10.3
2022-08-28T11:33:47.401Z,10.6
2022-08-28T11:38:47.383Z,11.4
2022-08-28T11:43:47.510Z,9.9
2022-08-28T11:48:47.303Z,14.0
2022-08-28T11:53:47.364Z,17.5
2022-08-28T11:58:47.540Z,15.7
2022-08-28T12:03:47.511Z,17.1
2022-08-28T12:08:47.284Z,15.4
2022-08-28T12:13:47.766Z,15.6
2022-08-28T12:18:47.339Z,15.4
2022-08-28T12:23:47.523Z,19.7
2022-08-28T12:28:47.241Z,15.9
2022-08-28T12:33:47.376Z,16.5
2022-08-28T12:38:47.367Z,15.5
2022-08-28T12:43:47.503Z,16.2
2022-08-28T12:48:47.347Z,12.8
2022-08-28T12:53:47.317Z,13.3
2022-08-28T12:58:47.496Z,14.2
2022-08-28T13:03:47.221Z,14.4
2022-08-28T13:08:47.216Z,14.5
2022-08-28T13:13:47.444Z,14.4
2022-08-28T13:18:47.298Z,12.5
2022-08-28T13:23:47.292Z,13.3
2022-08-28T13:28:47.407Z,14.6
2022-08-28T13:33:47.213Z,12.6
2022-08-28T13:38:47.171Z,18.1
2022-08-28T13:43:47.347Z,14.3
2022-08-28T13:48:47.211Z,14.2
2022-08-28T13:53:47.244Z,14.9
2022-08-28T13:58:52.836Z,17.3
2022-08-28T14:03:47.263Z,12.3
2022-08-28T14:08:47.175Z,10.0
2022-08-28T14:13:55.515Z,5.4
2022-08-28T14:18:47.232Z,5.9
2022-08-28T14:23:47.220Z,3.7
2022-08-28T14:28:47.545Z,6.6
2022-08-28T14:33:47.117Z,5.1
2022-08-28T14:38:47.174Z,4.9
2022-08-28T14:43:47.310Z,7.0
2022-08-28T14:48:47.130Z,8.7
2022-08-28T14:53:47.130Z,4.8
2022-08-28T14:58:47.375Z,5.4
2022-08-28T15:03:47.239Z,8.6
2022-08-28T15:08:47.133Z,2.8
2022-08-28T15:13:47.226Z,2.6
2022-08-28T15:18:47.153Z,2.9
2022-08-28T15:23:48.137Z,3.2
2022-08-28T15:28:48.676Z,3.9
2022-08-28T15:33:47.042Z,3.9
2022-08-28T15:38:47.079Z,6.3
2022-08-28T15:43:47.691Z,5.7
2022-08-28T15:48:54.378Z,4.3
2022-08-28T15:53:48.045Z,6.4
2022-08-28T15:58:47.055Z,8.8
2022-08-28T16:03:47.086Z,6.4
2022-08-28T16:08:47.017Z,7.6
2022-08-28T16:13:47.151Z,6.2
2022-08-28T16:18:47.002Z,3.8
2022-08-28T16:23:47.126Z,7.6
2022-08-28T16:28:47.111Z,10.3
2022-08-28T16:33:48.274Z,8.3
2022-08-28T16:38:46.915Z,9.0
2022-08-28T16:43:47.055Z,6.9
2022-08-28T16:48:47.494Z,10.6
2022-08-28T16:53:46.984Z,8.4
2022-08-28T16:58:47.070Z,11.6
2022-08-28T17:03:46.922Z,8.5
2022-08-28T17:08:46.946Z,7.3
2022-08-28T17:13:47.000Z,13.2
2022-08-28T17:18:51.974Z,10.8
2022-08-28T17:23:46.919Z,8.7
2022-08-28T17:28:46.751Z,11.0
2022-08-28T17:33:46.883Z,6.7
2022-08-28T17:38:46.875Z,6.8
2022-08-28T17:43:47.005Z,12.9
2022-08-28T17:48:53.566Z,7.7
2022-08-28T17:53:46.858Z,9.6
2022-08-28T17:58:47.023Z,9.1
2022-08-28T18:03:52.944Z,10.2
2022-08-28T18:08:46.742Z,10.5
2022-08-28T18:13:47.106Z,11.0
2022-08-28T18:18:46.804Z,10.7
2022-08-28T18:23:46.786Z,10.3
2022-08-28T18:28:46.842Z,12.3
2022-08-28T18:33:46.728Z,9.8
2022-08-28T18:38:47.011Z,8.1
2022-08-28T18:43:46.678Z,9.4
2022-08-28T18:48:46.761Z,9.6
2022-08-28T18:53:46.831Z,9.2
2022-08-28T18:58:46.746Z,10.6
2022-08-28T19:03:46.684Z,9.0
2022-08-28T19:08:46.971Z,13.9
2022-08-28T19:13:46.793Z,9.6
2022-08-28T19:18:47.988Z,9.1
2022-08-28T19:23:55.645Z,9.4
2022-08-28T19:28:46.834Z,11.0
2022-08-28T19:33:46.713Z,9.8
2022-08-28T19:38:46.639Z,13.0
2022-08-28T19:43:46.724Z,12.3
2022-08-28T19:48:46.676Z,18.9
2022-08-28T19:53:46.577Z,15.3
2022-08-28T19:58:46.698Z,15.6
2022-08-28T20:03:46.739Z,13.4
2022-08-28T20:08:46.768Z,12.4
2022-08-28T20:13:46.655Z,13.2
2022-08-28T20:18:46.618Z,17.2
2022-08-28T20:23:46.791Z,15.0
2022-08-28T20:28:46.618Z,17.2
2022-08-28T20:33:46.673Z,16.7
2022-08-28T20:38:46.512Z,15.0
2022-08-28T20:43:46.672Z,12.9
2022-08-28T20:48:46.598Z,13.0
2022-08-28T20:53:46.537Z,13.7
2022-08-28T20:58:46.540Z,15.6
2022-08-28T21:03:46.649Z,17.3
2022-08-28T21:08:46.653Z,18.2
2022-08-28T21:13:46.474Z,16.7
2022-08-28T21:19:13.993Z,12.6
2022-08-28T21:23:46.683Z,14.3
2022-08-28T21:28:46.571Z,17.2
2022-08-28T21:33:46.431Z,14.5
2022-08-28T21:38:46.478Z,14.1
2022-08-28T21:43:46.565Z,12.2
2022-08-28T21:48:46.582Z,13.5
2022-08-28T21:53:46.331Z,14.7
2022-08-28T21:58:46.497Z,11.2
2022-08-28T22:03:46.407Z,10.8
2022-08-28T22:08:46.617Z,9.5
2022-08-28T22:13:46.339Z,8.3
2022-08-28T22:18:46.408Z,8.3
2022-08-28T22:23:46.443Z,9.5
2022-08-28T22:28:46.687Z,9.3
2022-08-28T22:33:46.390Z,8.6
2022-08-28T22:38:53.046Z,10.5
2022-08-28T22:43:46.559Z,8.3
2022-08-28T22:48:46.295Z,10.7
2022-08-28T22:53:46.412Z,10.2
2022-08-28T22:58:46.606Z,8.9
2022-08-28T23:03:46.433Z,10.5
2022-08-28T23:08:46.448Z,9.2
2022-08-28T23:13:46.272Z,12.3
2022-08-28T23:19:04.244Z,11.4
2022-08-28T23:23:46.356Z,12.9
2022-08-28T23:28:46.534Z,10.9
2022-08-28T23:33:46.296Z,9.6
2022-08-28T23:38:46.292Z,11.0
2022-08-28T23:43:46.446Z,10.1
2022-08-28T23:48:46.228Z,10.3
2022-08-28T23:53:46.329Z,12.6
2022-08-28T23:58:46.470Z,11.0
